URSS 220030Z 05002MPS 9999 OVC080 07/03 Q1022 R02/010070 R06/010070 NOSIG RMK R06/00000MPS QFE765
QNH:(hPa/inHg/mmHg)1022 / 30.18 / 767
QFE:(hPa/inHg/mmHg)1019 / 30.08 / 764
Temperature7
Dew Point3
Visibility> 10000
Weather
Cloud CoverOVC (8000);
Transition Altitude13000 ft.
Transition LevelFL140
SQUAWK